createdAt,value
2023-06-20T00:01:08.743Z,62.10
2023-06-20T00:03:55.900Z,62.10
2023-06-20T00:06:43.135Z,62.00
2023-06-20T00:09:30.313Z,61.90
2023-06-20T00:12:17.499Z,61.80
2023-06-20T00:15:05.309Z,61.70
2023-06-20T00:18:02.747Z,61.20
2023-06-20T00:20:49.969Z,60.50
2023-06-20T00:23:37.138Z,60.60
2023-06-20T00:26:24.368Z,60.90
2023-06-20T00:29:11.557Z,60.80
2023-06-20T00:31:58.709Z,60.80
2023-06-20T00:34:45.883Z,60.90
2023-06-20T00:37:35.287Z,61.00
2023-06-20T00:40:22.469Z,61.20
2023-06-20T00:43:09.624Z,61.40
2023-06-20T00:45:57.821Z,61.80
2023-06-20T00:48:45.427Z,61.80
2023-06-20T00:51:33.314Z,61.80
2023-06-20T00:54:20.792Z,61.80
2023-06-20T00:57:08.066Z,61.90
2023-06-20T00:59:55.213Z,62.00
2023-06-20T01:02:48.330Z,62.10
2023-06-20T02:01:37.604Z,62.20
2023-06-20T02:04:26.456Z,62.50
2023-06-20T02:07:15.308Z,62.70
2023-06-20T02:10:04.342Z,63.00
2023-06-20T02:12:54.606Z,63.20
2023-06-20T02:15:42.898Z,63.30
2023-06-20T02:18:33.150Z,63.40
2023-06-20T02:21:25.122Z,63.30
2023-06-20T02:24:15.947Z,63.20
2023-06-20T02:27:04.779Z,63.20
2023-06-20T02:29:53.037Z,63.20
2023-06-20T02:32:43.712Z,63.30
2023-06-20T02:35:33.771Z,63.30
2023-06-20T02:38:21.060Z,63.40
2023-06-20T02:41:08.212Z,63.30
2023-06-20T02:43:55.441Z,63.20
2023-06-20T02:47:23.928Z,63.10
2023-06-20T02:50:42.301Z,63.00
2023-06-20T02:53:44.690Z,63.00
2023-06-20T02:56:34.902Z,63.00
2023-06-20T02:59:26.955Z,63.00
2023-06-20T03:02:17.916Z,63.10
2023-06-20T03:05:10.415Z,63.20
2023-06-20T03:07:58.805Z,63.40
2023-06-20T03:10:48.645Z,63.40
2023-06-20T03:13:35.926Z,63.40
2023-06-20T03:16:25.618Z,63.40
2023-06-20T03:19:12.837Z,63.40
2023-06-20T03:21:59.976Z,63.50
2023-06-20T03:24:49.064Z,63.40
2023-06-20T03:27:36.254Z,63.40
2023-06-20T03:30:23.460Z,63.50
2023-06-20T03:33:10.594Z,63.60
2023-06-20T03:35:57.867Z,63.60
2023-06-20T03:38:45.056Z,63.70
2023-06-20T03:41:32.216Z,63.70
2023-06-20T03:44:19.359Z,63.70
2023-06-20T03:47:06.933Z,63.70
2023-06-20T03:49:54.180Z,63.70
2023-06-20T03:52:41.381Z,63.70
2023-06-20T03:55:28.791Z,63.80
2023-06-20T03:58:16.077Z,64.00
2023-06-20T04:01:03.377Z,64.10
2023-06-20T04:03:50.694Z,64.30
2023-06-20T04:06:38.038Z,64.50
2023-06-20T04:09:28.373Z,64.70
2023-06-20T04:12:15.527Z,64.90
2023-06-20T04:15:02.968Z,65.00
2023-06-20T04:17:50.307Z,65.20
2023-06-20T04:20:37.548Z,65.30
2023-06-20T04:23:24.687Z,65.30
2023-06-20T04:26:12.451Z,65.30
2023-06-20T04:28:59.807Z,65.30
2023-06-20T04:31:47.245Z,65.30
2023-06-20T04:34:34.450Z,65.40
2023-06-20T04:37:21.812Z,65.40
2023-06-20T04:40:12.351Z,65.50
2023-06-20T04:42:59.597Z,65.50
2023-06-20T04:45:46.747Z,65.70
2023-06-20T04:48:36.883Z,65.70
2023-06-20T04:51:27.019Z,65.80
2023-06-20T04:54:14.502Z,65.90
2023-06-20T04:57:03.514Z,65.90
2023-06-20T04:59:50.924Z,65.90
2023-06-20T05:02:42.991Z,65.90
2023-06-20T05:05:30.828Z,66.00
2023-06-20T05:08:18.170Z,65.90
2023-06-20T05:11:05.335Z,65.80
2023-06-20T05:13:52.618Z,65.80
2023-06-20T05:16:39.850Z,65.90
2023-06-20T05:19:27.106Z,65.90
2023-06-20T05:22:14.306Z,66.00
2023-06-20T05:25:01.475Z,66.00
2023-06-20T05:27:48.886Z,66.00
2023-06-20T05:30:36.051Z,66.10
2023-06-20T05:33:23.299Z,66.20
2023-06-20T05:36:10.517Z,66.30
2023-06-20T05:38:59.851Z,66.40
2023-06-20T05:41:48.206Z,66.40
2023-06-20T05:44:35.380Z,66.60
2023-06-20T05:47:22.600Z,66.70
2023-06-20T05:50:10.039Z,66.80
2023-06-20T05:52:57.326Z,67.00
2023-06-20T05:55:44.625Z,67.10
2023-06-20T05:58:31.854Z,67.30
2023-06-20T06:01:19.096Z,67.40
2023-06-20T06:04:06.513Z,67.40
2023-06-20T06:06:53.887Z,67.50
2023-06-20T06:09:41.185Z,67.60
2023-06-20T06:12:28.355Z,67.30
2023-06-20T06:15:15.776Z,67.30
2023-06-20T06:18:05.066Z,67.20
2023-06-20T06:20:52.521Z,67.10
2023-06-20T06:23:39.801Z,66.90
2023-06-20T06:26:26.957Z,66.90
2023-06-20T06:29:14.149Z,66.70
2023-06-20T20:33:48.021Z,92.70
2023-06-20T20:36:35.162Z,92.60
2023-06-20T20:39:22.348Z,92.00
2023-06-20T20:42:09.891Z,90.90
2023-06-20T20:44:57.032Z,89.70
2023-06-20T20:47:44.577Z,88.00
2023-06-20T20:50:32.084Z,86.60
2023-06-20T20:53:19.688Z,85.50
2023-06-20T20:56:06.974Z,84.50
2023-06-20T20:58:55.263Z,83.80
2023-06-20T21:01:42.565Z,83.20
2023-06-20T21:04:30.444Z,82.50
2023-06-20T21:07:17.647Z,81.90
2023-06-20T21:10:05.333Z,81.20
2023-06-20T21:12:53.126Z,81.00
2023-06-20T21:15:40.346Z,80.90
2023-06-20T21:18:27.535Z,80.40
2023-06-20T21:21:15.132Z,80.10
2023-06-20T21:24:05.389Z,79.60
2023-06-20T21:26:52.614Z,79.30
2023-06-20T21:29:40.877Z,79.30
2023-06-20T21:32:28.110Z,79.10
2023-06-20T21:35:15.392Z,78.80
2023-06-20T21:38:03.261Z,78.60
2023-06-20T21:40:52.076Z,78.60
2023-06-20T21:43:39.282Z,78.50
2023-06-20T21:46:26.614Z,78.50
2023-06-20T21:49:13.895Z,78.40
2023-06-20T21:52:01.041Z,78.30
2023-06-20T21:54:48.153Z,78.30
2023-06-20T21:57:36.578Z,78.20
2023-06-20T22:00:23.740Z,78.10
2023-06-20T22:03:11.100Z,78.00
2023-06-20T22:05:58.353Z,78.00
2023-06-20T22:08:45.579Z,77.90
2023-06-20T22:11:32.848Z,77.70
2023-06-20T22:14:20.033Z,77.50
2023-06-20T22:17:07.266Z,77.50
2023-06-20T22:19:54.842Z,77.50
2023-06-20T22:22:42.039Z,77.50
2023-06-20T22:25:29.195Z,77.30
2023-06-20T22:28:16.483Z,77.20
2023-06-20T22:31:03.760Z,77.10
2023-06-20T22:33:50.956Z,77.00
2023-06-20T22:36:38.145Z,77.10
2023-06-20T22:39:25.297Z,77.10
2023-06-20T22:42:12.493Z,77.20
2023-06-20T22:44:59.642Z,77.20
2023-06-20T22:47:46.908Z,77.10
2023-06-20T22:50:39.008Z,77.20
2023-06-20T22:53:28.482Z,77.20
2023-06-20T22:56:15.660Z,77.00
2023-06-20T22:59:02.809Z,77.10
2023-06-20T23:01:50.216Z,77.00
2023-06-20T23:04:37.475Z,77.00
2023-06-20T23:07:27.255Z,77.00
2023-06-20T23:10:14.536Z,77.00
2023-06-20T23:13:01.770Z,77.00
2023-06-20T23:15:48.965Z,76.90
2023-06-20T23:18:36.151Z,76.90
2023-06-20T23:21:26.645Z,76.90
2023-06-20T23:24:13.855Z,76.90
2023-06-20T23:27:01.237Z,77.00
2023-06-20T23:29:48.397Z,77.10
2023-06-20T23:32:35.688Z,76.80
2023-06-20T23:35:22.948Z,76.80
2023-06-20T23:38:12.411Z,76.80
2023-06-20T23:40:59.970Z,76.90
2023-06-20T23:43:47.771Z,77.00
2023-06-20T23:46:35.790Z,76.80
2023-06-20T23:49:23.121Z,77.10
2023-06-20T23:52:10.408Z,77.00
2023-06-20T23:54:59.589Z,78.00
2023-06-20T23:57:46.831Z,77.30
